createdAt,value
2018-09-19T00:00:16.228Z,100400.59
2018-09-19T00:02:43.084Z,100401.69
2018-09-19T00:05:09.934Z,100400.48
2018-09-19T00:07:36.900Z,100400.27
2018-09-19T00:10:03.919Z,100399.39
2018-09-19T00:12:30.879Z,100396.00
2018-09-19T00:14:57.845Z,100399.37
2018-09-19T00:17:24.792Z,100391.64
2018-09-19T00:19:51.791Z,100404.24
2018-09-19T00:22:18.703Z,100405.16
2018-09-19T00:24:45.671Z,100407.69
2018-09-19T00:27:12.673Z,100406.16
2018-09-19T00:29:39.548Z,100409.44
2018-09-19T00:32:06.503Z,100408.80
2018-09-19T00:34:33.453Z,100417.16
2018-09-19T00:37:00.377Z,100412.23
2018-09-19T00:39:27.387Z,100408.09
2018-09-19T00:41:54.276Z,100404.95
2018-09-19T00:44:21.144Z,100407.45
2018-09-19T00:46:48.022Z,100404.62
2018-09-19T00:49:14.918Z,100409.48
2018-09-19T00:51:41.791Z,100413.55
2018-09-19T00:54:08.745Z,100417.33
2018-09-19T00:56:35.715Z,100420.19
2018-09-19T00:59:02.680Z,100417.32
2018-09-19T01:01:29.692Z,100418.91
2018-09-19T01:03:56.592Z,100417.08
2018-09-19T01:06:23.557Z,100411.01
2018-09-19T01:08:50.491Z,100418.56
2018-09-19T01:11:17.446Z,100414.03
2018-09-19T01:13:44.343Z,100415.27
2018-09-19T01:16:11.197Z,100427.27
2018-09-19T01:18:38.130Z,100422.82
2018-09-19T01:21:05.180Z,100422.35
2018-09-19T01:23:32.031Z,100414.74
2018-09-19T01:25:58.899Z,100415.33
2018-09-19T01:28:26.802Z,100425.91
2018-09-19T01:30:53.779Z,100417.72
2018-09-19T01:33:20.708Z,100427.47
2018-09-19T01:35:47.658Z,100428.67
2018-09-19T01:38:14.589Z,100430.64
2018-09-19T01:40:41.632Z,100433.77
2018-09-19T01:43:08.537Z,100440.23
2018-09-19T01:45:35.476Z,100443.03
2018-09-19T01:48:02.435Z,100441.81
2018-09-19T01:50:29.384Z,100435.95
2018-09-19T01:52:56.306Z,100434.03
2018-09-19T01:55:23.191Z,100439.38
2018-09-19T01:57:50.159Z,100438.60
2018-09-19T02:00:17.115Z,100443.48
2018-09-19T02:02:44.089Z,100440.52
2018-09-19T02:05:11.013Z,100438.77
2018-09-19T02:07:37.908Z,100437.15
2018-09-19T02:10:04.992Z,100438.09
2018-09-19T02:12:31.900Z,100434.23
2018-09-19T02:14:58.873Z,100432.98
2018-09-19T02:17:25.746Z,100442.83
2018-09-19T02:19:52.664Z,100438.19
2018-09-19T02:22:19.635Z,100435.75
2018-09-19T02:24:46.595Z,100446.08
2018-09-19T02:27:13.464Z,100444.07
2018-09-19T02:29:40.395Z,100444.34
2018-09-19T02:32:07.387Z,100446.28
2018-09-19T02:34:34.319Z,100452.17
2018-09-19T02:37:01.275Z,100453.61
2018-09-19T02:39:28.197Z,100458.11
2018-09-19T02:41:55.106Z,100455.29
2018-09-19T02:44:22.079Z,100453.49
2018-09-19T02:46:49.060Z,100453.17
2018-09-19T02:49:16.006Z,100457.54
2018-09-19T02:51:42.954Z,100455.41
2018-09-19T02:54:09.911Z,100455.62
2018-09-19T02:56:36.835Z,100465.72
2018-09-19T02:59:04.715Z,100464.91
2018-09-19T03:01:31.566Z,100466.61
2018-09-19T03:03:58.528Z,100460.91
2018-09-19T03:06:26.315Z,100463.59
2018-09-19T03:08:53.317Z,100456.69
2018-09-19T03:11:20.221Z,100465.58
2018-09-19T03:13:47.170Z,100464.81
2018-09-19T03:16:15.051Z,100469.17
2018-09-19T03:18:41.998Z,100459.74
2018-09-19T03:21:08.862Z,100464.86
2018-09-19T03:23:36.045Z,100475.53
2018-09-19T03:26:02.989Z,100469.64
2018-09-19T03:28:29.924Z,100471.99
2018-09-19T03:30:56.818Z,100465.41
2018-09-19T03:33:23.744Z,100470.34
2018-09-19T03:35:50.732Z,100472.33
2018-09-19T03:38:17.692Z,100476.94
2018-09-19T03:40:44.638Z,100475.30
2018-09-19T03:43:11.679Z,100469.61
2018-09-19T03:45:38.882Z,100473.98
2018-09-19T03:48:05.790Z,100475.00
2018-09-19T03:50:32.755Z,100476.39
2018-09-19T03:52:59.696Z,100478.08
2018-09-19T03:55:26.592Z,100482.30
2018-09-19T03:57:53.539Z,100478.09
2018-09-19T04:00:20.477Z,100480.35
2018-09-19T04:02:47.494Z,100478.50
2018-09-19T04:05:14.437Z,100482.06
2018-09-19T04:07:41.388Z,100478.23
2018-09-19T04:10:08.318Z,100483.69
2018-09-19T04:12:35.332Z,100482.60
2018-09-19T04:15:02.235Z,100481.59
2018-09-19T04:17:29.089Z,100482.69
2018-09-19T04:19:56.079Z,100485.94
2018-09-19T04:22:23.096Z,100482.45
2018-09-19T04:24:50.147Z,100483.83
2018-09-19T04:27:18.611Z,100479.75
2018-09-19T04:29:45.546Z,100483.02
2018-09-19T04:32:12.500Z,100485.97
2018-09-19T04:34:39.434Z,100490.27
2018-09-19T04:37:06.416Z,100494.11
2018-09-19T04:39:33.360Z,100490.86
2018-09-19T04:42:00.318Z,100496.84
2018-09-19T04:44:27.255Z,100495.14
2018-09-19T04:46:54.232Z,100503.36
2018-09-19T04:49:21.195Z,100506.97
2018-09-19T04:51:48.093Z,100503.05
2018-09-19T04:54:15.016Z,100502.73
2018-09-19T04:56:42.971Z,100504.27
2018-09-19T04:59:09.925Z,100503.55
2018-09-19T05:01:36.866Z,100509.22
2018-09-19T05:04:03.878Z,100513.92
2018-09-19T05:06:30.791Z,100512.73
2018-09-19T05:08:57.768Z,100524.91
2018-09-19T05:11:24.714Z,100526.14
2018-09-19T05:13:51.719Z,100526.78
2018-09-19T05:16:19.016Z,100533.93
2018-09-19T05:18:45.887Z,100537.93
2018-09-19T05:21:12.857Z,100539.03
2018-09-19T05:23:39.801Z,100547.45
2018-09-19T05:26:06.707Z,100556.20
2018-09-19T05:28:33.619Z,100557.02
2018-09-19T05:31:00.683Z,100554.45
2018-09-19T05:33:27.547Z,100558.49
2018-09-19T05:35:54.484Z,100564.17
2018-09-19T05:38:21.468Z,100559.21
2018-09-19T05:40:48.531Z,100556.83
2018-09-19T05:43:15.473Z,100556.78
2018-09-19T05:45:42.428Z,100565.04
2018-09-19T05:48:09.367Z,100559.67
2018-09-19T05:50:36.467Z,100562.98
2018-09-19T05:53:03.407Z,100556.16
2018-09-19T05:55:30.251Z,100555.80
2018-09-19T05:57:57.198Z,100558.99
2018-09-19T06:00:24.175Z,100560.22
2018-09-19T06:02:51.126Z,100560.16
2018-09-19T06:05:17.964Z,100559.09
2018-09-19T06:07:44.927Z,100561.26
2018-09-19T06:10:11.882Z,100568.30
2018-09-19T06:12:38.874Z,100566.27
2018-09-19T06:15:05.813Z,100572.87
2018-09-19T06:17:32.907Z,100576.94
2018-09-19T06:19:59.831Z,100578.45
2018-09-19T06:22:26.778Z,100573.19
2018-09-19T06:24:53.741Z,100574.97
2018-09-19T06:27:20.595Z,100567.48
2018-09-19T06:29:47.543Z,100572.68
2018-09-19T06:32:14.519Z,100578.45
2018-09-19T06:34:41.493Z,100585.14
2018-09-19T06:37:08.412Z,100586.27
2018-09-19T06:39:35.307Z,100595.37
2018-09-19T06:42:02.244Z,100591.16
2018-09-19T06:44:29.191Z,100597.55
2018-09-19T06:46:56.096Z,100590.49
2018-09-19T06:49:22.920Z,100596.45
2018-09-19T06:51:49.854Z,100601.77
2018-09-19T06:54:16.810Z,100592.31
2018-09-19T06:56:43.767Z,100598.92
2018-09-19T06:59:10.631Z,100598.08
2018-09-19T07:01:37.591Z,100602.27
2018-09-19T07:04:04.799Z,100609.05
2018-09-19T07:06:31.701Z,100609.00
2018-09-19T07:08:58.670Z,100604.02
2018-09-19T07:11:25.639Z,100600.68
2018-09-19T07:13:52.579Z,100594.56
2018-09-19T07:16:19.447Z,100597.64
2018-09-19T07:18:46.448Z,100593.22
2018-09-19T07:21:13.303Z,100596.89
2018-09-19T07:23:40.236Z,100600.58
2018-09-19T07:26:07.198Z,100604.81
2018-09-19T07:28:35.165Z,100599.75
2018-09-19T07:31:02.196Z,100599.63
2018-09-19T07:33:29.078Z,100607.11
2018-09-19T07:35:56.019Z,100604.27
2018-09-19T07:38:23.050Z,100608.29
2018-09-19T07:40:49.925Z,100608.67
2018-09-19T07:43:16.878Z,100616.80
2018-09-19T07:45:43.872Z,100620.20
2018-09-19T07:48:10.808Z,100623.06
2018-09-19T07:50:37.780Z,100617.02
2018-09-19T07:53:04.739Z,100626.48
2018-09-19T07:55:32.744Z,100631.72
2018-09-19T07:57:59.944Z,100633.45
2018-09-19T08:00:26.905Z,100628.88
2018-09-19T08:02:53.828Z,100629.94
2018-09-19T08:05:20.699Z,100624.96
2018-09-19T08:07:47.587Z,100625.92
2018-09-19T08:10:14.552Z,100628.14
2018-09-19T08:12:41.516Z,100637.67
2018-09-19T08:15:08.470Z,100654.09
2018-09-19T08:17:35.445Z,100654.13
2018-09-19T08:20:02.379Z,100655.54
2018-09-19T08:22:29.355Z,100654.37
2018-09-19T08:24:56.288Z,100647.48
2018-09-19T08:27:23.262Z,100650.05
2018-09-19T08:29:50.215Z,100652.11
2018-09-19T08:32:17.159Z,100650.02
2018-09-19T08:34:44.124Z,100646.17
2018-09-19T08:37:10.990Z,100648.91
2018-09-19T08:39:37.960Z,100646.49
2018-09-19T08:42:04.904Z,100646.66
2018-09-19T08:44:31.875Z,100650.23
2018-09-19T08:46:58.747Z,100654.86
2018-09-19T08:49:25.666Z,100658.02
2018-09-19T08:51:52.660Z,100658.24
2018-09-19T08:54:19.592Z,100662.00
2018-09-19T08:56:46.538Z,100658.12
2018-09-19T08:59:13.497Z,100654.06
2018-09-19T09:01:40.513Z,100652.91
2018-09-19T09:04:07.435Z,100652.39
2018-09-19T09:06:34.372Z,100650.17
2018-09-19T09:09:01.316Z,100645.50
2018-09-19T09:11:28.324Z,100647.51
2018-09-19T09:13:55.256Z,100654.77
2018-09-19T09:16:22.197Z,100652.09
2018-09-19T09:18:49.160Z,100650.55
2018-09-19T09:21:16.104Z,100639.42
2018-09-19T09:23:43.069Z,100643.97
2018-09-19T09:26:10.040Z,100640.80
2018-09-19T09:28:36.998Z,100638.87
2018-09-19T09:31:04.125Z,100639.92
2018-09-19T09:33:31.000Z,100628.36
2018-09-19T09:35:58.025Z,100621.87
2018-09-19T09:38:24.933Z,100623.09
2018-09-19T09:40:51.877Z,100611.46
2018-09-19T09:43:18.779Z,100621.86
2018-09-19T09:45:45.693Z,100617.34
2018-09-19T09:48:12.643Z,100609.09
2018-09-19T09:50:39.606Z,100617.16
2018-09-19T09:53:06.586Z,100612.73
2018-09-19T09:55:33.512Z,100617.66
2018-09-19T09:58:00.536Z,100616.00
2018-09-19T10:00:33.105Z,100615.22
2018-09-19T10:03:00.123Z,100613.89
2018-09-19T10:05:27.169Z,100609.23
2018-09-19T10:07:54.107Z,100615.17
2018-09-19T10:10:21.024Z,100613.98
2018-09-19T10:12:47.976Z,100613.94
2018-09-19T10:15:14.879Z,100611.58
2018-09-19T10:17:41.786Z,100613.78
2018-09-19T10:20:08.723Z,100607.81
2018-09-19T10:22:35.679Z,100613.77
2018-09-19T10:25:02.537Z,100608.73
2018-09-19T10:27:29.495Z,100606.05
2018-09-19T10:29:56.474Z,100601.92
2018-09-19T10:32:24.210Z,100610.52
2018-09-19T10:34:51.119Z,100608.78
2018-09-19T10:37:18.137Z,100603.73
2018-09-19T10:39:45.134Z,100602.29
2018-09-19T10:42:12.059Z,100598.91
2018-09-19T10:44:39.050Z,100604.08
2018-09-19T10:47:05.958Z,100612.63
2018-09-19T10:49:32.904Z,100608.64
2018-09-19T10:51:59.814Z,100608.38
2018-09-19T10:54:26.764Z,100600.27
2018-09-19T10:56:53.690Z,100595.95
2018-09-19T10:59:20.576Z,100589.81
2018-09-19T11:01:47.540Z,100592.77
2018-09-19T11:04:14.495Z,100594.64
2018-09-19T11:06:41.480Z,100594.09
2018-09-19T11:09:09.695Z,100580.31
2018-09-19T11:11:37.043Z,100585.32
2018-09-19T11:14:03.975Z,100589.41
2018-09-19T11:16:30.924Z,100589.41
2018-09-19T11:18:57.809Z,100589.75
2018-09-19T11:21:24.754Z,100581.98
2018-09-19T11:23:52.113Z,100576.14
2018-09-19T11:26:19.058Z,100579.52
2018-09-19T11:28:46.019Z,100569.39
2018-09-19T11:31:12.981Z,100571.80
2018-09-19T11:33:40.894Z,100568.33
2018-09-19T11:36:07.804Z,100571.00
2018-09-19T11:38:34.799Z,100555.95
2018-09-19T11:41:01.756Z,100565.49
2018-09-19T11:43:28.659Z,100552.95
2018-09-19T11:45:55.539Z,100561.16
2018-09-19T11:48:22.541Z,100548.16
2018-09-19T11:50:49.509Z,100550.03
2018-09-19T11:53:23.432Z,100552.22
2018-09-19T11:55:50.539Z,100552.77
2018-09-19T11:58:17.483Z,100545.51
2018-09-19T12:00:44.443Z,100540.25
2018-09-19T12:03:11.439Z,100538.98
2018-09-19T12:05:38.343Z,100536.88
2018-09-19T12:08:05.443Z,100540.66
2018-09-19T12:10:32.346Z,100540.92
2018-09-19T12:12:59.311Z,100540.13
2018-09-19T12:15:26.267Z,100540.94
2018-09-19T12:17:53.239Z,100529.13
2018-09-19T12:20:20.186Z,100518.92
2018-09-19T12:22:47.167Z,100519.73
2018-09-19T12:25:14.032Z,100514.62
2018-09-19T12:27:41.036Z,100510.88
2018-09-19T12:30:07.974Z,100510.06
2018-09-19T12:32:34.911Z,100499.31
2018-09-19T12:35:01.833Z,100509.25
2018-09-19T12:37:28.807Z,100502.81
2018-09-19T12:39:55.680Z,100501.73
2018-09-19T12:42:22.611Z,100504.95
2018-09-19T12:44:49.588Z,100502.47
2018-09-19T12:47:16.455Z,100500.27
2018-09-19T12:49:43.413Z,100493.58
2018-09-19T12:52:10.359Z,100492.88
2018-09-19T12:54:37.287Z,100494.97
2018-09-19T12:57:04.267Z,100478.84
2018-09-19T12:59:31.237Z,100479.62
2018-09-19T13:01:58.099Z,100486.83
2018-09-19T13:04:25.036Z,100480.97
2018-09-19T13:06:51.982Z,100477.41
2018-09-19T13:09:19.971Z,100482.41
2018-09-19T13:11:46.935Z,100481.61
2018-09-19T13:14:13.926Z,100478.39
2018-09-19T13:16:40.807Z,100476.20
2018-09-19T13:19:07.687Z,100465.73
2018-09-19T13:21:34.664Z,100463.85
2018-09-19T13:24:01.695Z,100465.21
2018-09-19T13:26:28.792Z,100455.81
2018-09-19T13:28:55.765Z,100459.87
2018-09-19T13:31:22.692Z,100451.24
2018-09-19T13:33:49.627Z,100453.91
2018-09-19T13:36:16.614Z,100450.45
2018-09-19T13:38:43.551Z,100454.20
2018-09-19T13:41:10.648Z,100455.02
2018-09-19T13:43:37.770Z,100456.03
2018-09-19T13:46:04.747Z,100454.45
2018-09-19T13:48:31.698Z,100452.33
2018-09-19T13:51:07.854Z,100453.11
2018-09-19T13:53:34.835Z,100451.81
2018-09-19T13:56:01.956Z,100449.89
2018-09-19T13:58:29.000Z,100450.98
2018-09-19T14:00:55.964Z,100452.59
2018-09-19T14:03:22.919Z,100441.58
2018-09-19T14:05:49.811Z,100450.93
2018-09-19T14:08:16.803Z,100445.97
2018-09-19T14:10:43.764Z,100444.84
2018-09-19T14:13:10.680Z,100441.85
2018-09-19T14:15:40.380Z,100443.94
2018-09-19T14:18:09.465Z,100437.00
2018-09-19T14:20:38.096Z,100438.85
2018-09-19T14:23:06.286Z,100441.70
2018-09-19T14:25:34.519Z,100438.58
2018-09-19T14:28:01.503Z,100440.89
2018-09-19T14:30:28.492Z,100432.41
2018-09-19T14:32:55.379Z,100438.03
2018-09-19T14:35:22.324Z,100428.42
2018-09-19T14:37:49.344Z,100420.08
2018-09-19T14:40:16.346Z,100431.36
2018-09-19T14:42:44.256Z,100420.64
2018-09-19T14:45:17.604Z,100427.37
2018-09-19T14:47:50.958Z,100428.73
2018-09-19T14:50:22.290Z,100430.35
2018-09-19T14:52:54.498Z,100430.05
2018-09-19T14:55:21.359Z,100426.86
2018-09-19T14:57:48.412Z,100424.10
2018-09-19T15:00:15.346Z,100423.03
2018-09-19T15:02:42.339Z,100423.04
2018-09-19T15:05:09.315Z,100422.50
2018-09-19T15:07:36.207Z,100413.91
2018-09-19T15:10:03.187Z,100416.95
2018-09-19T15:12:30.134Z,100420.70
2018-09-19T15:14:57.110Z,100412.93
2018-09-19T15:17:24.053Z,100414.23
2018-09-19T15:19:51.036Z,100413.42
2018-09-19T15:22:17.967Z,100410.75
2018-09-19T15:24:44.924Z,100412.64
2018-09-19T15:27:12.316Z,100413.42
2018-09-19T15:29:39.335Z,100412.61
2018-09-19T15:32:06.280Z,100405.66
2018-09-19T15:34:33.269Z,100411.03
2018-09-19T15:37:00.221Z,100415.30
2018-09-19T15:39:27.078Z,100409.14
2018-09-19T15:41:54.140Z,100413.20
2018-09-19T15:44:21.150Z,100408.58
2018-09-19T15:46:48.081Z,100412.09
2018-09-19T15:49:15.095Z,100411.56
2018-09-19T15:51:41.972Z,100414.77
2018-09-19T15:54:08.975Z,100412.08
2018-09-19T15:56:35.940Z,100411.00
2018-09-19T15:59:02.891Z,100409.39
2018-09-19T16:01:30.009Z,100411.53
2018-09-19T16:03:57.015Z,100411.81
2018-09-19T16:06:23.939Z,100408.86
2018-09-19T16:08:50.863Z,100411.00
2018-09-19T16:11:18.013Z,100408.05
2018-09-19T16:13:44.867Z,100407.52
2018-09-19T16:16:11.876Z,100402.70
2018-09-19T16:18:38.792Z,100408.06
2018-09-19T16:21:05.872Z,100415.28
2018-09-19T16:23:32.723Z,100408.31
2018-09-19T16:25:59.687Z,100404.84
2018-09-19T16:28:26.654Z,100408.30
2018-09-19T16:30:53.627Z,100411.56
2018-09-19T16:33:20.535Z,100412.90
2018-09-19T16:35:47.483Z,100414.53
2018-09-19T16:38:14.447Z,100418.28
2018-09-19T16:40:41.431Z,100412.63
2018-09-19T16:43:08.478Z,100422.02
2018-09-19T16:45:35.383Z,100427.37
2018-09-19T16:48:02.299Z,100423.89
2018-09-19T16:50:29.268Z,100427.27
2018-09-19T16:52:56.404Z,100435.67
2018-09-19T16:55:23.217Z,100425.09
2018-09-19T16:57:51.259Z,100433.08
2018-09-19T17:00:18.204Z,100429.14
2018-09-19T17:02:45.176Z,100430.22
2018-09-19T17:05:12.476Z,100430.44
2018-09-19T17:07:39.367Z,100432.48
2018-09-19T17:10:06.335Z,100432.48
2018-09-19T17:12:33.506Z,100438.09
2018-09-19T17:15:00.522Z,100434.60
2018-09-19T17:17:27.472Z,100434.79
2018-09-19T17:19:54.380Z,100438.00
2018-09-19T17:22:21.352Z,100430.21
2018-09-19T17:24:48.275Z,100436.12
2018-09-19T17:27:15.159Z,100441.55
2018-09-19T17:29:42.091Z,100446.61
2018-09-19T17:32:09.067Z,100446.19
2018-09-19T17:34:36.027Z,100453.17
2018-09-19T17:37:03.020Z,100454.61
2018-09-19T17:39:29.891Z,100447.98
2018-09-19T17:41:56.796Z,100449.27
2018-09-19T17:44:23.858Z,100458.13
2018-09-19T17:46:51.395Z,100450.30
2018-09-19T17:49:18.278Z,100455.58
2018-09-19T17:51:45.256Z,100454.08
2018-09-19T17:54:12.181Z,100452.45
2018-09-19T17:56:39.169Z,100451.95
2018-09-19T17:59:06.126Z,100454.39
2018-09-19T18:01:33.009Z,100460.58
2018-09-19T18:04:00.017Z,100459.28
2018-09-19T18:06:27.004Z,100457.02
2018-09-19T18:08:53.973Z,100459.66
2018-09-19T18:11:20.902Z,100460.55
2018-09-19T18:13:47.880Z,100467.61
2018-09-19T18:16:14.792Z,100465.22
2018-09-19T18:18:41.800Z,100464.03
2018-09-19T18:21:08.771Z,100467.05
2018-09-19T18:23:35.675Z,100470.99
2018-09-19T18:26:02.645Z,100466.67
2018-09-19T18:28:29.589Z,100472.91
2018-09-19T18:30:56.538Z,100470.47
2018-09-19T18:33:23.421Z,100475.98
2018-09-19T18:35:50.340Z,100472.19
2018-09-19T18:38:17.375Z,100478.58
2018-09-19T18:40:44.264Z,100477.95
2018-09-19T18:43:11.231Z,100473.16
2018-09-19T18:45:38.163Z,100481.22
2018-09-19T18:48:05.052Z,100476.78
2018-09-19T18:50:32.040Z,100477.91
2018-09-19T18:52:58.984Z,100483.83
2018-09-19T18:55:25.976Z,100484.49
2018-09-19T18:57:52.895Z,100483.59
2018-09-19T19:00:19.853Z,100483.19
2018-09-19T19:02:46.779Z,100483.40
2018-09-19T19:05:14.714Z,100482.45
2018-09-19T19:07:41.590Z,100485.02
2018-09-19T19:10:08.480Z,100483.20
2018-09-19T19:12:35.458Z,100486.34
2018-09-19T19:15:02.388Z,100490.63
2018-09-19T19:17:29.372Z,100493.28
2018-09-19T19:19:56.312Z,100488.20
2018-09-19T19:22:23.284Z,100488.02
2018-09-19T19:24:50.227Z,100492.36
2018-09-19T19:27:17.183Z,100489.11
2018-09-19T19:29:44.089Z,100489.14
2018-09-19T19:32:11.008Z,100488.97
2018-09-19T19:34:38.968Z,100494.52
2018-09-19T19:37:06.597Z,100493.94
2018-09-19T19:39:33.528Z,100493.47
2018-09-19T19:42:00.651Z,100487.70
2018-09-19T19:44:27.693Z,100493.14
2018-09-19T19:46:54.585Z,100493.89
2018-09-19T19:49:22.188Z,100499.20
2018-09-19T19:51:49.071Z,100495.20
2018-09-19T19:54:18.169Z,100500.32
2018-09-19T19:56:45.104Z,100494.06
2018-09-19T19:59:12.605Z,100487.00
2018-09-19T20:01:38.995Z,100493.50
2018-09-19T20:04:05.904Z,100491.00
2018-09-19T20:06:32.856Z,100495.63
2018-09-19T20:08:59.809Z,100496.71
2018-09-19T20:11:26.680Z,100504.66
2018-09-19T20:13:53.616Z,100508.02
2018-09-19T20:16:20.606Z,100512.72
2018-09-19T20:18:47.493Z,100513.88
2018-09-19T20:21:14.492Z,100519.80
2018-09-19T20:23:41.396Z,100520.56
2018-09-19T20:26:08.365Z,100517.83
2018-09-19T20:28:35.330Z,100516.30
2018-09-19T20:31:02.555Z,100512.93
2018-09-19T20:33:29.476Z,100512.29
2018-09-19T20:35:56.356Z,100513.31
2018-09-19T20:38:23.243Z,100517.25
2018-09-19T20:40:50.251Z,100511.60
2018-09-19T20:43:17.220Z,100514.09
2018-09-19T20:45:44.207Z,100511.34
2018-09-19T20:48:11.067Z,100510.62
2018-09-19T20:50:38.030Z,100514.72
2018-09-19T20:53:04.984Z,100508.47
2018-09-19T20:55:31.967Z,100513.52
2018-09-19T20:57:58.828Z,100518.09
2018-09-19T21:00:25.763Z,100515.61
2018-09-19T21:02:52.731Z,100512.71
2018-09-19T21:05:19.685Z,100525.82
2018-09-19T21:07:46.588Z,100526.11
2018-09-19T21:10:13.489Z,100523.67
2018-09-19T21:12:40.445Z,100526.41
2018-09-19T21:15:07.398Z,100517.55
2018-09-19T21:17:34.375Z,100519.09
2018-09-19T21:20:01.320Z,100519.84
2018-09-19T21:22:28.414Z,100518.64
2018-09-19T21:24:55.223Z,100521.77
2018-09-19T21:27:22.187Z,100523.64
2018-09-19T21:29:49.148Z,100533.75
2018-09-19T21:32:16.292Z,100536.08
2018-09-19T21:34:43.178Z,100541.38
2018-09-19T21:37:10.112Z,100537.80
2018-09-19T21:39:36.959Z,100537.81
2018-09-19T21:42:03.827Z,100548.80
2018-09-19T21:44:30.783Z,100548.07
2018-09-19T21:46:57.742Z,100550.69
2018-09-19T21:49:24.696Z,100554.39
2018-09-19T21:51:51.655Z,100549.19
2018-09-19T21:54:18.640Z,100554.69
2018-09-19T21:56:45.595Z,100557.14
2018-09-19T21:59:12.523Z,100554.16
2018-09-19T22:01:41.419Z,100559.22
2018-09-19T22:04:08.371Z,100561.34
2018-09-19T22:06:35.299Z,100568.30
2018-09-19T22:09:02.202Z,100561.19
2018-09-19T22:11:29.059Z,100561.10
2018-09-19T22:13:56.063Z,100558.44
2018-09-19T22:16:22.934Z,100565.23
2018-09-19T22:18:49.866Z,100555.17
2018-09-19T22:21:16.731Z,100556.53
2018-09-19T22:23:43.665Z,100552.75
2018-09-19T22:26:10.523Z,100561.69
2018-09-19T22:28:37.460Z,100556.00
2018-09-19T22:31:04.660Z,100561.08
2018-09-19T22:33:31.546Z,100549.19
2018-09-19T22:35:58.431Z,100558.45
2018-09-19T22:38:25.380Z,100559.77
2018-09-19T22:40:52.416Z,100557.10
2018-09-19T22:43:19.369Z,100554.55
2018-09-19T22:45:46.275Z,100556.02
2018-09-19T22:48:13.235Z,100556.98
2018-09-19T22:50:40.196Z,100555.01
2018-09-19T22:53:07.175Z,100553.65
2018-09-19T22:55:34.142Z,100556.83
2018-09-19T22:58:00.992Z,100553.45
2018-09-19T23:00:27.900Z,100555.30
2018-09-19T23:02:54.859Z,100556.98
2018-09-19T23:05:21.724Z,100553.38
2018-09-19T23:07:48.697Z,100545.51
2018-09-19T23:10:15.636Z,100544.28
2018-09-19T23:12:42.583Z,100546.13
2018-09-19T23:15:09.448Z,100546.16
2018-09-19T23:17:36.400Z,100550.06
2018-09-19T23:20:04.103Z,100544.67
2018-09-19T23:22:31.031Z,100544.14
2018-09-19T23:24:57.896Z,100540.62
2018-09-19T23:27:24.843Z,100543.62
2018-09-19T23:29:51.820Z,100546.47
2018-09-19T23:32:18.767Z,100542.72
2018-09-19T23:34:45.730Z,100542.80
2018-09-19T23:37:12.675Z,100544.84
2018-09-19T23:39:39.651Z,100543.88
2018-09-19T23:42:06.876Z,100543.91
2018-09-19T23:44:33.747Z,100551.05
2018-09-19T23:47:00.715Z,100546.33
2018-09-19T23:49:27.671Z,100543.95
2018-09-19T23:51:54.633Z,100554.95
2018-09-19T23:54:21.591Z,100554.14
2018-09-19T23:56:48.604Z,100554.11
2018-09-19T23:59:15.464Z,100554.22
